Time;durP1;ratioP1;P1;durP2;ratioP2;P2;SDS_P1;SDS_P2;PMS_P1;PMS_P2;Temp;Humidity;BMP_temperature;BMP_pressure;BME280_temperature;BME280_humidity;BME280_pressure;Samples;Min_cycle;Max_cycle;Signal;HPM_P1;HPM_P2
2021/07/23 00:01:54;;;;;;;19.08;11.13;;;;;;;19.74;60.97;92993.91;2052149;70;20148;-74
2021/07/23 00:04:20;;;;;;;19.17;11.77;;;;;;;19.68;60.72;92994.44;2052233;70;20197;-74
2021/07/23 00:06:46;;;;;;;21.13;11.20;;;;;;;19.83;59.74;92984.19;2052086;70;20608;-73
2021/07/23 00:09:11;;;;;;;17.60;11.00;;;;;;;19.48;61.08;92993.78;2052200;70;20154;-74
2021/07/23 00:11:37;;;;;;;19.05;11.35;;;;;;;19.64;60.72;92996.44;2052131;70;20576;-74
2021/07/23 00:14:02;;;;;;;18.25;10.85;;;;;;;19.46;61.90;92985.84;2052193;70;20574;-74
2021/07/23 00:16:31;;;;;;;18.58;11.57;;;;;;;19.52;60.95;92980.34;2051667;70;20161;-73
2021/07/23 00:18:56;;;;;;;21.10;11.15;;;;;;;19.66;60.34;92991.53;2049927;70;20150;-73
2021/07/23 00:21:22;;;;;;;19.05;11.50;;;;;;;19.15;62.00;92989.84;2052078;69;20145;-73
2021/07/23 00:23:48;;;;;;;17.85;11.93;;;;;;;19.37;61.15;92997.69;2052088;70;20159;-72
2021/07/23 00:26:14;;;;;;;16.83;10.90;;;;;;;19.39;61.25;92986.34;2052160;70;20681;-73
2021/07/23 00:28:40;;;;;;;18.50;11.02;;;;;;;19.24;61.40;92983.03;2052056;70;20516;-73
2021/07/23 00:31:06;;;;;;;16.90;11.50;;;;;;;19.15;61.35;92981.28;2052279;69;20202;-73
2021/07/23 00:33:32;;;;;;;17.08;10.95;;;;;;;19.35;61.16;92977.63;2051701;69;20613;-73
2021/07/23 00:35:58;;;;;;;16.23;10.63;;;;;;;19.37;60.92;92981.28;2064716;69;20245;-73
2021/07/23 00:38:24;;;;;;;18.90;11.35;;;;;;;19.40;61.13;92979.97;2052365;70;20155;-72
2021/07/23 00:40:49;;;;;;;17.02;12.20;;;;;;;19.42;60.79;92970.72;2052291;69;20190;-74
2021/07/23 00:43:15;;;;;;;16.38;10.65;;;;;;;19.35;61.60;92975.50;2052034;70;20154;-73
2021/07/23 00:45:41;;;;;;;19.95;11.25;;;;;;;19.25;60.82;92975.19;2052326;70;20146;-73
2021/07/23 00:48:07;;;;;;;17.90;12.13;;;;;;;19.23;60.63;92975.84;2064863;69;20154;-73
2021/07/23 00:50:34;;;;;;;19.83;11.73;;;;;;;19.20;61.53;92970.75;2052357;70;20148;-73
2021/07/23 00:52:59;;;;;;;22.65;13.02;;;;;;;19.19;61.45;92966.41;2052082;70;20630;-72
2021/07/23 00:55:26;;;;;;;17.23;11.38;;;;;;;19.17;61.15;92967.06;2065369;69;20208;-72
2021/07/23 00:57:55;;;;;;;20.95;12.18;;;;;;;19.24;61.35;92974.47;2051803;70;20687;-72
2021/07/23 01:00:21;;;;;;;19.65;12.52;;;;;;;19.27;61.41;92973.13;2062482;69;20161;-73
2021/07/23 01:02:58;;;;;;;19.38;12.38;;;;;;;19.16;62.13;92970.59;2063647;69;20242;-72
2021/07/23 01:05:25;;;;;;;19.25;11.80;;;;;;;19.17;61.37;92963.50;2051781;69;20170;-73
2021/07/23 01:07:51;;;;;;;19.88;12.13;;;;;;;19.23;61.29;92961.56;2051871;70;20177;-74
2021/07/23 01:10:16;;;;;;;16.33;11.27;;;;;;;19.09;62.85;92966.06;2052234;70;20154;-73
2021/07/23 01:13:08;;;;;;;18.77;12.00;;;;;;;18.98;62.79;92962.88;2064975;69;20145;-74
2021/07/23 01:15:36;;;;;;;19.40;11.75;;;;;;;18.56;63.91;92962.13;2064949;69;20177;-73
2021/07/23 01:18:03;;;;;;;19.27;11.98;;;;;;;18.92;62.35;92965.53;2064967;69;20178;-74
2021/07/23 01:20:29;;;;;;;19.75;12.40;;;;;;;19.09;60.94;92960.38;2052348;70;20166;-73
2021/07/23 01:22:57;;;;;;;19.55;11.68;;;;;;;18.89;62.25;92960.44;2065221;69;20154;-73
2021/07/23 01:25:25;;;;;;;20.75;12.00;;;;;;;19.05;61.90;92970.25;2064956;69;20150;-73
2021/07/23 01:27:52;;;;;;;18.30;12.00;;;;;;;18.97;62.22;92957.84;2051933;70;20169;-74
2021/07/23 01:30:34;;;;;;;19.85;11.70;;;;;;;18.89;62.92;92958.28;2052280;70;20138;-73
2021/07/23 01:33:07;;;;;;;16.95;11.52;;;;;;;18.93;62.67;92957.72;2064069;69;20150;-73
2021/07/23 01:35:33;;;;;;;18.50;11.52;;;;;;;18.79;62.95;92964.38;2051637;70;20516;-74
2021/07/23 01:38:02;;;;;;;19.73;11.68;;;;;;;18.67;63.89;92968.91;2052119;70;20177;-74
2021/07/23 01:40:30;;;;;;;17.05;11.50;;;;;;;18.89;62.86;92961.16;2064893;69;20410;-74
2021/07/23 01:42:56;;;;;;;20.17;11.82;;;;;;;18.81;63.66;92963.00;2057337;69;20157;-73
2021/07/23 01:45:22;;;;;;;19.60;11.82;;;;;;;18.87;63.32;92961.06;2064274;69;20154;-74
2021/07/23 01:48:06;;;;;;;18.42;12.30;;;;;;;18.71;63.46;92957.66;2049974;70;20233;-74
2021/07/23 01:50:32;;;;;;;20.83;12.73;;;;;;;18.92;62.13;92964.78;2052238;70;20139;-74
2021/07/23 01:52:58;;;;;;;19.35;11.55;;;;;;;18.96;62.09;92962.06;2065006;69;20154;-74
2021/07/23 01:55:28;;;;;;;18.58;11.25;;;;;;;18.93;62.50;92955.59;2065054;69;20229;-74
2021/07/23 01:57:54;;;;;;;19.55;12.15;;;;;;;18.90;62.82;92959.03;2052046;70;20170;-75
2021/07/23 02:00:21;;;;;;;18.85;11.70;;;;;;;18.52;63.75;92954.16;2065021;69;20153;-73
2021/07/23 02:02:48;;;;;;;18.63;11.38;;;;;;;18.74;62.98;92944.94;2064557;69;20512;-74
2021/07/23 02:05:20;;;;;;;18.30;11.73;;;;;;;18.86;62.28;92951.06;2052022;70;20151;-73
2021/07/23 02:07:46;;;;;;;19.92;10.73;;;;;;;18.95;60.42;92946.34;2064907;69;20146;-74
2021/07/23 02:10:14;;;;;;;17.13;11.10;;;;;;;18.93;62.21;92954.84;2062414;69;20142;-74
2021/07/23 02:12:40;;;;;;;18.20;11.45;;;;;;;18.68;63.31;92947.53;2051816;70;20177;-72
2021/07/23 02:15:15;;;;;;;19.02;11.52;;;;;;;18.79;62.90;92946.53;2052005;70;20619;-72
2021/07/23 02:17:43;;;;;;;20.08;11.10;;;;;;;18.86;62.19;92941.78;2064920;69;20157;-72
2021/07/23 02:20:16;;;;;;;18.88;11.88;;;;;;;18.66;63.05;92936.81;2051846;69;20166;-72
2021/07/23 02:22:42;;;;;;;17.55;12.00;;;;;;;18.44;62.56;92936.03;2051664;70;20143;-72
2021/07/23 02:25:11;;;;;;;18.38;11.60;;;;;;;18.64;62.03;92941.69;2065012;69;20686;-73
2021/07/23 02:27:38;;;;;;;18.90;11.60;;;;;;;18.51;64.00;92937.72;2051920;69;20669;-73
2021/07/23 02:30:04;;;;;;;18.98;11.68;;;;;;;18.59;63.15;92937.97;2065080;69;20233;-73
2021/07/23 02:32:37;;;;;;;22.45;11.50;;;;;;;18.55;63.63;92932.13;2064593;69;20285;-73
2021/07/23 02:35:03;;;;;;;20.42;11.90;;;;;;;18.53;63.69;92932.06;2052203;70;20142;-73
2021/07/23 02:37:40;;;;;;;17.30;11.55;;;;;;;18.48;63.84;92936.19;2064872;69;20201;-72
2021/07/23 02:40:07;;;;;;;20.80;11.55;;;;;;;18.63;63.20;92931.69;2052184;70;20233;-73
2021/07/23 02:42:32;;;;;;;19.55;10.93;;;;;;;18.66;62.53;92931.09;2064907;69;20201;-72
2021/07/23 02:44:58;;;;;;;19.15;11.85;;;;;;;18.64;63.03;92938.84;2051547;70;20608;-74
2021/07/23 02:47:24;;;;;;;17.23;11.65;;;;;;;18.59;63.26;92934.41;2064850;69;20139;-73
2021/07/23 02:49:51;;;;;;;20.48;11.57;;;;;;;18.70;63.42;92931.28;2065093;69;20153;-73
2021/07/23 02:52:17;;;;;;;17.58;12.27;;;;;;;18.50;63.01;92922.72;2051873;70;20181;-73
2021/07/23 02:54:45;;;;;;;18.85;11.98;;;;;;;18.39;64.25;92926.59;2061641;69;20517;-74
2021/07/23 02:57:12;;;;;;;17.85;11.45;;;;;;;18.44;63.65;92924.63;2063515;69;20486;-73
2021/07/23 02:59:42;;;;;;;20.27;11.73;;;;;;;18.49;62.37;92921.25;2064932;69;20212;-73
2021/07/23 03:02:12;;;;;;;20.17;11.75;;;;;;;18.43;64.04;92914.63;2051832;69;20138;-72
2021/07/23 03:04:38;;;;;;;16.77;11.50;;;;;;;18.41;64.09;92908.84;2051935;70;20176;-73
2021/07/23 03:07:04;;;;;;;19.00;11.63;;;;;;;18.36;64.17;92907.22;2052060;70;20657;-72
2021/07/23 03:09:31;;;;;;;20.98;12.73;;;;;;;18.27;64.34;92909.78;2064907;69;20147;-73
2021/07/23 03:11:59;;;;;;;21.60;11.45;;;;;;;18.22;64.19;92913.88;2064687;69;20181;-73
2021/07/23 03:14:24;;;;;;;18.67;11.30;;;;;;;18.29;63.42;92915.56;2051911;69;20146;-74
2021/07/23 03:17:08;;;;;;;19.05;12.30;;;;;;;18.33;63.88;92906.44;2051700;70;20205;-73
2021/07/23 03:19:35;;;;;;;19.55;12.45;;;;;;;18.31;63.23;92902.78;2051977;70;20162;-72
2021/07/23 03:22:02;;;;;;;18.15;11.82;;;;;;;18.18;64.38;92904.47;2064888;69;20243;-73
2021/07/23 03:24:28;;;;;;;20.08;12.02;;;;;;;18.35;63.28;92906.50;2052051;70;20660;-73
2021/07/23 03:26:57;;;;;;;20.55;12.43;;;;;;;18.21;63.57;92906.72;2065214;69;20138;-72
2021/07/23 03:29:23;;;;;;;18.58;11.88;;;;;;;18.25;63.48;92906.88;2065060;69;20139;-73
2021/07/23 03:31:49;;;;;;;21.13;13.13;;;;;;;18.17;64.49;92903.00;2052169;69;20170;-72
2021/07/23 03:34:22;;;;;;;18.70;12.57;;;;;;;18.08;64.71;92901.25;2052355;70;20135;-73
2021/07/23 03:36:55;;;;;;;19.77;12.18;;;;;;;18.18;64.06;92896.66;2052405;70;20146;-73
2021/07/23 03:39:53;;;;;;;20.50;12.85;;;;;;;18.19;63.88;92898.13;2057276;69;20203;-73
2021/07/23 03:42:22;;;;;;;20.52;12.60;;;;;;;18.18;63.27;92890.22;2065421;69;20146;-73
2021/07/23 03:45:20;;;;;;;22.20;13.20;;;;;;;17.88;64.99;92896.28;2055173;69;20318;-74
2021/07/23 03:48:02;;;;;;;19.63;13.03;;;;;;;17.87;64.73;92897.69;2052346;70;20604;-74
2021/07/23 03:50:32;;;;;;;18.05;12.55;;;;;;;17.70;65.13;92892.72;2065294;69;20740;-74
2021/07/23 03:53:00;;;;;;;18.50;11.93;;;;;;;17.71;65.14;92892.06;2052358;69;20158;-74
2021/07/23 03:55:51;;;;;;;21.95;12.52;;;;;;;17.89;64.82;92892.03;2052642;69;20204;-74
2021/07/23 03:58:27;;;;;;;20.38;12.40;;;;;;;17.87;64.65;92894.06;2065040;69;20231;-72
2021/07/23 04:00:53;;;;;;;25.58;13.02;;;;;;;17.83;65.06;92886.13;2065317;69;20139;-72
2021/07/23 04:03:19;;;;;;;23.58;12.55;;;;;;;17.77;65.12;92888.75;2052210;70;20524;-72
2021/07/23 04:05:47;;;;;;;20.50;12.88;;;;;;;17.77;65.05;92888.75;2065175;69;20521;-74
2021/07/23 04:08:13;;;;;;;20.38;12.55;;;;;;;17.91;63.00;92889.25;2065294;69;20150;-74
2021/07/23 04:10:39;;;;;;;22.02;13.68;;;;;;;17.63;64.19;92885.34;2052468;70;20215;-73
2021/07/23 04:13:06;;;;;;;22.15;13.55;;;;;;;17.84;63.57;92889.72;2051772;69;20597;-73
2021/07/23 04:15:39;;;;;;;22.30;12.80;;;;;;;17.75;64.41;92888.69;2052075;70;20150;-72
2021/07/23 04:18:09;;;;;;;20.10;12.30;;;;;;;17.85;63.68;92886.19;2065040;69;20146;-72
2021/07/23 04:20:41;;;;;;;21.52;13.13;;;;;;;17.51;65.21;92891.31;2064926;69;20610;-72
2021/07/23 04:23:09;;;;;;;21.23;13.25;;;;;;;17.69;65.09;92888.44;2063062;69;20154;-72
2021/07/23 04:25:38;;;;;;;23.40;12.23;;;;;;;17.93;63.53;92883.66;2065190;69;20586;-74
2021/07/23 04:28:05;;;;;;;19.90;12.63;;;;;;;17.77;64.87;92889.47;2052373;70;20150;-73
2021/07/23 04:30:36;;;;;;;;;;;;;;;17.80;64.84;92890.28;2065106;69;20717;-72
2021/07/23 04:33:17;;;;;;;22.33;13.30;;;;;;;17.72;64.99;92898.50;2051955;70;20058;-74
2021/07/23 04:35:57;;;;;;;22.98;13.48;;;;;;;17.71;64.16;92894.19;2064949;69;20153;-72
2021/07/23 04:38:23;;;;;;;23.92;13.13;;;;;;;17.91;63.23;92894.94;2065321;69;20268;-73
2021/07/23 04:40:53;;;;;;;20.80;13.25;;;;;;;17.52;66.24;92895.63;2064680;69;20603;-73
2021/07/23 04:43:27;;;;;;;23.92;13.27;;;;;;;18.01;62.05;92897.47;2065159;69;20146;-73
2021/07/23 04:45:54;;;;;;;23.92;13.65;;;;;;;17.83;64.74;92897.53;2051729;70;20189;-73
2021/07/23 04:48:20;;;;;;;19.52;12.60;;;;;;;17.71;64.93;92903.47;2052262;70;20154;-73
2021/07/23 04:51:15;;;;;;;23.75;13.65;;;;;;;17.74;65.04;92899.34;2054172;69;20158;-73
2021/07/23 04:53:58;;;;;;;20.92;13.82;;;;;;;17.67;64.43;92906.16;2051289;69;20153;-73
2021/07/23 04:57:03;;;;;;;27.38;13.52;;;;;;;17.61;64.95;92905.19;2055793;69;20635;-73
2021/07/23 04:59:29;;;;;;;22.17;13.48;;;;;;;17.77;64.90;92905.81;2035701;69;20183;-72
2021/07/23 05:01:55;;;;;;;19.48;12.85;;;;;;;17.70;64.82;92912.66;2053487;69;20606;-73
2021/07/23 05:04:21;;;;;;;23.45;14.15;;;;;;;17.30;67.17;92911.81;2051877;70;20520;-73
2021/07/23 05:06:46;;;;;;;23.10;13.60;;;;;;;17.43;66.51;92914.50;2052005;70;20585;-73
2021/07/23 05:09:12;;;;;;;21.65;12.57;;;;;;;17.64;66.03;92912.41;2052369;69;20166;-73
2021/07/23 05:11:42;;;;;;;23.33;13.20;;;;;;;17.79;65.05;92905.91;2065135;69;20154;-73
2021/07/23 05:14:08;;;;;;;21.52;13.32;;;;;;;17.80;64.87;92906.66;2052130;69;20218;-73
2021/07/23 05:16:35;;;;;;;23.33;13.23;;;;;;;17.84;64.82;92910.38;2051769;70;20505;-74
2021/07/23 05:19:03;;;;;;;29.30;14.38;;;;;;;17.87;64.76;92914.75;2064796;69;20174;-73
2021/07/23 05:21:28;;;;;;;26.52;13.93;;;;;;;17.74;65.29;92910.00;2052010;70;20142;-74
2021/07/23 05:23:54;;;;;;;21.00;13.02;;;;;;;17.79;64.12;92911.59;2052145;70;20158;-75
2021/07/23 05:26:20;;;;;;;28.23;13.27;;;;;;;17.69;64.77;92914.06;2052248;70;20245;-73
2021/07/23 05:28:46;;;;;;;23.90;13.45;;;;;;;17.77;64.07;92917.22;2052277;70;20297;-73
2021/07/23 05:31:12;;;;;;;32.85;13.85;;;;;;;17.82;64.28;92910.28;2052375;70;20241;-74
2021/07/23 05:33:38;;;;;;;26.50;13.95;;;;;;;17.69;65.46;92911.22;2065054;69;20137;-74
2021/07/23 05:36:05;;;;;;;33.85;14.38;;;;;;;17.78;63.62;92916.56;2052338;70;20253;-74
2021/07/23 05:38:31;;;;;;;22.23;12.57;;;;;;;17.92;64.00;92915.66;2065274;69;20165;-73
2021/07/23 05:40:56;;;;;;;28.75;13.32;;;;;;;18.06;63.58;92915.44;2052289;70;20541;-74
2021/07/23 05:43:22;;;;;;;25.23;13.32;;;;;;;18.09;64.16;92916.97;2052267;70;20621;-74
2021/07/23 05:45:48;;;;;;;24.15;13.07;;;;;;;17.98;64.92;92918.72;2052218;70;20142;-74
2021/07/23 05:48:13;;;;;;;23.67;14.13;;;;;;;18.15;64.67;92920.78;2052085;70;20532;-73
2021/07/23 05:50:39;;;;;;;21.75;13.82;;;;;;;18.04;64.64;92919.66;2052122;69;20134;-74
2021/07/23 05:53:05;;;;;;;24.98;14.15;;;;;;;18.12;64.66;92915.66;2052137;70;20610;-74
2021/07/23 05:55:30;;;;;;;37.28;14.93;;;;;;;18.19;64.11;92908.75;2052208;69;20158;-74
2021/07/23 05:57:57;;;;;;;26.02;13.27;;;;;;;18.34;63.68;92912.88;2052313;70;20158;-74
2021/07/23 06:00:25;;;;;;;20.88;13.35;;;;;;;18.28;64.87;92919.09;2052211;69;20233;-74
2021/07/23 06:02:51;;;;;;;23.98;13.57;;;;;;;18.25;64.18;92917.56;2052119;70;20158;-75
2021/07/23 06:05:17;;;;;;;22.15;13.65;;;;;;;18.06;65.63;92921.88;2052329;70;20506;-75
2021/07/23 06:07:43;;;;;;;25.00;13.80;;;;;;;18.22;64.65;92921.72;2052188;70;20138;-73
2021/07/23 06:10:09;;;;;;;22.48;14.05;;;;;;;18.39;64.84;92923.75;2052152;69;20609;-73
2021/07/23 06:12:35;;;;;;;20.65;13.65;;;;;;;18.42;65.41;92919.59;2052352;70;20149;-74
2021/07/23 06:15:01;;;;;;;26.45;13.88;;;;;;;18.44;64.61;92916.81;2052148;70;20150;-77
2021/07/23 06:17:27;;;;;;;26.55;14.65;;;;;;;18.20;66.48;92918.78;2052164;70;20185;-74
2021/07/23 06:19:52;;;;;;;23.35;14.40;;;;;;;18.29;64.95;92918.44;2052211;70;20169;-75
2021/07/23 06:22:19;;;;;;;22.55;14.23;;;;;;;18.60;63.88;92919.50;2052216;69;20651;-75
2021/07/23 06:24:45;;;;;;;24.38;14.30;;;;;;;18.64;64.64;92916.03;2065175;69;20572;-75
2021/07/23 06:27:10;;;;;;;24.80;13.75;;;;;;;18.78;62.59;92911.59;2052290;70;20588;-74
2021/07/23 06:29:36;;;;;;;22.88;14.43;;;;;;;18.80;63.52;92919.47;2052272;69;20172;-75
2021/07/23 06:32:02;;;;;;;22.70;14.25;;;;;;;18.87;63.99;92911.84;2052079;70;20216;-75
2021/07/23 06:34:27;;;;;;;24.35;13.85;;;;;;;18.85;63.96;92920.34;2052133;70;20513;-74
2021/07/23 06:36:53;;;;;;;25.08;13.98;;;;;;;19.11;62.77;92911.94;2052349;70;20142;-75
2021/07/23 06:39:19;;;;;;;21.98;14.05;;;;;;;19.28;62.96;92908.19;2052254;70;20211;-74
2021/07/23 06:41:44;;;;;;;23.90;13.77;;;;;;;19.29;63.26;92901.84;2052270;69;20137;-75
2021/07/23 06:44:10;;;;;;;23.85;14.25;;;;;;;19.36;60.76;92899.91;2052129;70;20673;-73
2021/07/23 06:46:36;;;;;;;24.75;14.57;;;;;;;19.42;62.08;92900.06;2064966;69;20144;-73
2021/07/23 06:49:01;;;;;;;24.00;14.38;;;;;;;19.60;60.63;92902.78;2052271;69;20251;-73
2021/07/23 06:51:27;;;;;;;23.05;14.68;;;;;;;19.79;59.69;92899.13;2052259;70;20142;-74
2021/07/23 06:53:53;;;;;;;23.05;14.38;;;;;;;19.88;61.47;92896.47;2052087;70;20583;-75
2021/07/23 06:56:18;;;;;;;23.23;14.10;;;;;;;19.90;60.90;92899.41;2052222;70;20231;-75
2021/07/23 06:58:44;;;;;;;21.15;13.70;;;;;;;19.95;60.47;92892.41;2051996;70;20585;-74
2021/07/23 07:01:09;;;;;;;21.40;14.13;;;;;;;20.12;59.16;92890.75;2052371;70;20170;-76
2021/07/23 07:03:35;;;;;;;22.13;13.43;;;;;;;20.20;60.38;92890.97;2052134;70;20150;-74
2021/07/23 07:06:04;;;;;;;20.58;13.98;;;;;;;20.27;60.50;92892.59;2052025;69;20157;-74
2021/07/23 07:08:29;;;;;;;21.08;13.77;;;;;;;20.27;60.69;92890.47;2052071;69;20210;-73
2021/07/23 07:10:55;;;;;;;22.20;13.98;;;;;;;20.24;62.20;92891.09;2052156;70;20150;-73
2021/07/23 07:13:20;;;;;;;22.95;13.63;;;;;;;20.37;60.81;92890.03;2052272;70;20178;-74
2021/07/23 07:15:46;;;;;;;26.58;14.50;;;;;;;20.46;62.33;92882.41;2065053;69;20150;-75
2021/07/23 07:18:11;;;;;;;21.58;13.27;;;;;;;20.65;61.53;92892.22;2051941;69;20148;-76
2021/07/23 07:20:37;;;;;;;21.23;13.43;;;;;;;20.63;59.94;92881.47;2052064;69;20212;-75
2021/07/23 07:23:04;;;;;;;24.25;13.88;;;;;;;20.73;60.52;92883.84;2052049;69;20177;-75
2021/07/23 07:25:31;;;;;;;21.38;14.15;;;;;;;20.73;63.37;92876.00;2051987;70;20225;-75
2021/07/23 07:27:57;;;;;;;23.92;14.55;;;;;;;20.70;60.84;92877.34;2052071;70;20563;-76
2021/07/23 07:30:23;;;;;;;22.45;14.38;;;;;;;20.82;59.83;92876.94;2051962;70;20234;-75
2021/07/23 07:32:49;;;;;;;20.73;13.93;;;;;;;20.92;60.14;92877.19;2051866;70;20138;-74
2021/07/23 07:35:16;;;;;;;22.35;13.65;;;;;;;21.05;59.43;92866.78;2052088;70;20149;-75
2021/07/23 07:37:41;;;;;;;21.90;13.63;;;;;;;21.21;60.21;92867.19;2051970;70;20158;-75
2021/07/23 07:40:08;;;;;;;23.02;13.82;;;;;;;21.29;60.47;92864.50;2051935;69;20132;-75
2021/07/23 07:42:33;;;;;;;19.70;14.02;;;;;;;21.41;60.27;92854.78;2052090;69;20142;-75
2021/07/23 07:44:59;;;;;;;20.05;14.15;;;;;;;21.44;60.65;92859.13;2051922;70;20154;-75
2021/07/23 07:47:25;;;;;;;22.75;14.40;;;;;;;21.30;56.71;92862.34;2051850;69;20185;-75
2021/07/23 07:49:51;;;;;;;22.70;15.18;;;;;;;21.60;57.70;92862.34;2052002;69;20627;-75
2021/07/23 07:52:19;;;;;;;19.35;14.00;;;;;;;21.61;58.17;92860.22;2064875;69;20195;-75
2021/07/23 07:54:48;;;;;;;21.75;13.52;;;;;;;21.83;55.40;92861.44;2051904;69;20174;-75
2021/07/23 07:57:14;;;;;;;21.70;13.75;;;;;;;22.02;55.44;92853.22;2051922;69;20138;-76
2021/07/23 07:59:39;;;;;;;19.73;13.27;;;;;;;22.57;56.46;92849.31;2064989;69;20161;-75
2021/07/23 08:02:09;;;;;;;20.13;13.35;;;;;;;22.48;52.90;92846.97;2051759;70;20150;-75
2021/07/23 08:04:36;;;;;;;19.88;13.93;;;;;;;23.08;53.25;92849.50;2051888;70;20153;-75
2021/07/23 08:07:06;;;;;;;21.83;14.18;;;;;;;23.13;51.82;92844.56;2051860;70;20618;-77
2021/07/23 08:09:46;;;;;;;18.48;13.38;;;;;;;23.59;50.44;92835.91;2051842;70;20177;-75
2021/07/23 08:12:12;;;;;;;20.02;13.60;;;;;;;23.80;48.54;92840.56;2052561;70;20166;-76
2021/07/23 08:14:37;;;;;;;22.45;13.57;;;;;;;24.22;49.72;92836.06;2052434;70;20262;-74
2021/07/23 08:17:03;;;;;;;20.05;13.93;;;;;;;23.92;48.42;92837.16;2052403;70;20146;-75
2021/07/23 08:19:29;;;;;;;18.75;13.57;;;;;;;24.24;47.51;92833.94;2052415;69;20184;-76
2021/07/23 08:21:54;;;;;;;18.80;12.93;;;;;;;24.35;49.31;92826.16;2052542;70;20593;-76
2021/07/23 08:24:20;;;;;;;22.23;13.77;;;;;;;24.88;47.78;92823.13;2052428;70;20233;-76
2021/07/23 08:26:46;;;;;;;19.25;13.77;;;;;;;24.79;46.50;92828.09;2052397;69;20225;-80
2021/07/23 08:29:11;;;;;;;19.75;13.45;;;;;;;25.07;48.54;92824.75;2065376;69;20154;-77
2021/07/23 08:31:37;;;;;;;19.35;13.13;;;;;;;25.26;46.70;92822.75;2052389;70;20154;-74
2021/07/23 08:34:02;;;;;;;18.67;12.50;;;;;;;25.85;47.00;92814.53;2052383;69;20155;-75
2021/07/23 08:36:28;;;;;;;19.08;13.25;;;;;;;26.12;45.06;92817.56;2052530;70;20498;-74
2021/07/23 08:38:54;;;;;;;20.92;13.30;;;;;;;26.69;44.70;92818.50;2052477;69;20640;-76
2021/07/23 08:41:20;;;;;;;19.75;13.45;;;;;;;26.73;44.65;92806.97;2052356;70;20181;-76
2021/07/23 08:43:46;;;;;;;19.52;13.60;;;;;;;26.94;44.64;92809.88;2052386;69;20149;-76
2021/07/23 08:46:14;;;;;;;17.15;12.60;;;;;;;27.11;44.49;92802.69;2052517;70;20158;-77
2021/07/23 08:48:39;;;;;;;18.48;13.45;;;;;;;26.83;42.61;92812.03;2052233;70;20134;-76
2021/07/23 08:51:05;;;;;;;17.27;13.43;;;;;;;27.23;43.40;92802.72;2052374;70;20211;-77
2021/07/23 08:53:31;;;;;;;16.35;11.98;;;;;;;27.39;44.00;92798.34;2052249;70;20147;-79
2021/07/23 08:55:56;;;;;;;16.73;12.35;;;;;;;28.05;41.23;92802.63;2052499;70;20177;-77
2021/07/23 08:58:22;;;;;;;18.42;12.32;;;;;;;27.65;41.09;92803.41;2065544;69;20178;-76
2021/07/23 09:00:47;;;;;;;17.73;12.20;;;;;;;28.00;42.12;92796.13;2052361;70;20152;-76
2021/07/23 09:03:13;;;;;;;15.25;11.55;;;;;;;28.57;41.60;92792.28;2065212;69;20201;-77
2021/07/23 09:05:45;;;;;;;15.75;11.80;;;;;;;28.48;40.48;92805.38;2052305;69;20150;-76
2021/07/23 09:08:12;;;;;;;15.57;11.82;;;;;;;28.94;40.46;92804.38;2052490;70;20174;-75
2021/07/23 09:10:37;;;;;;;15.82;11.85;;;;;;;29.00;38.89;92794.94;2052338;70;20138;-75
2021/07/23 09:13:05;;;;;;;15.85;12.00;;;;;;;29.33;39.94;92798.34;2052339;70;20274;-74
2021/07/23 09:15:42;;;;;;;16.73;11.73;;;;;;;29.29;36.65;92792.56;2052338;70;20722;-75
2021/07/23 09:18:20;;;;;;;18.90;12.07;;;;;;;28.41;36.93;92784.41;2052155;70;20150;-75
2021/07/23 09:20:59;;;;;;;17.80;11.75;;;;;;;29.44;37.97;92781.56;2052293;70;20143;-74
2021/07/23 09:23:32;;;;;;;16.27;11.95;;;;;;;29.16;38.27;92777.44;2052241;70;20153;-75
2021/07/23 09:26:07;;;;;;;16.30;11.25;;;;;;;29.75;37.99;92779.13;2052206;70;20182;-75
2021/07/23 09:28:35;;;;;;;14.98;11.98;;;;;;;28.79;36.22;92769.00;2052350;70;20593;-75
2021/07/23 09:31:03;;;;;;;17.90;11.93;;;;;;;29.18;37.21;92771.63;2052274;70;20150;-74
2021/07/23 09:33:43;;;;;;;16.70;12.90;;;;;;;29.41;37.28;92762.75;2052163;70;20157;-74
2021/07/23 09:36:10;;;;;;;18.05;12.73;;;;;;;29.38;38.21;92762.06;2052286;70;20154;-74
2021/07/23 09:38:46;;;;;;;15.55;11.88;;;;;;;29.71;37.57;92759.59;2052392;70;20620;-75
2021/07/23 09:41:22;;;;;;;15.80;11.80;;;;;;;29.97;38.04;92758.59;2050522;70;20204;-75
2021/07/23 09:44:15;;;;;;;15.10;12.32;;;;;;;29.29;39.12;92749.81;2051512;70;20142;-76
2021/07/23 09:46:42;;;;;;;18.02;12.35;;;;;;;28.97;38.62;92745.00;2051332;69;20663;-76
2021/07/23 09:49:18;;;;;;;15.30;11.77;;;;;;;30.14;38.27;92750.44;2052197;70;20153;-75
2021/07/23 09:51:44;;;;;;;15.93;12.40;;;;;;;30.32;37.32;92747.31;2051872;70;20614;-76
2021/07/23 09:54:10;;;;;;;19.70;11.75;;;;;;;30.17;37.09;92737.34;2052188;70;20192;-76
2021/07/23 09:56:38;;;;;;;18.45;12.50;;;;;;;29.75;36.51;92741.44;2052026;70;20141;-75
2021/07/23 09:59:09;;;;;;;16.40;12.15;;;;;;;29.92;36.63;92733.25;2052360;70;20591;-74
2021/07/23 10:01:40;;;;;;;13.95;11.93;;;;;;;29.69;36.27;92724.06;2064700;69;20134;-74
2021/07/23 10:04:20;;;;;;;15.73;12.18;;;;;;;30.04;36.34;92728.03;2052016;69;20150;-75
2021/07/23 10:07:05;;;;;;;15.02;11.45;;;;;;;29.86;36.30;92725.34;2052014;70;20170;-76
2021/07/23 10:09:33;;;;;;;15.60;11.95;;;;;;;30.21;36.17;92722.06;2051718;70;20182;-76
2021/07/23 10:11:59;;;;;;;15.57;11.68;;;;;;;31.35;34.73;92720.41;2051847;70;20181;-76
2021/07/23 10:14:29;;;;;;;14.43;11.80;;;;;;;31.28;33.56;92713.25;2051997;69;20660;-77
2021/07/23 10:16:54;;;;;;;17.13;11.68;;;;;;;31.80;35.19;92711.59;2051703;70;20509;-76
2021/07/23 10:19:23;;;;;;;14.50;10.88;;;;;;;31.75;34.86;92707.34;2051874;70;20150;-75
2021/07/23 10:21:56;;;;;;;13.07;11.00;;;;;;;32.44;33.66;92695.81;2052077;70;20582;-75
2021/07/23 10:24:24;;;;;;;15.80;11.82;;;;;;;31.85;33.35;92694.81;2051875;70;20170;-75
2021/07/23 10:26:51;;;;;;;14.88;10.65;;;;;;;32.29;32.51;92690.25;2051425;70;20595;-76
2021/07/23 10:29:49;;;;;;;19.05;11.00;;;;;;;32.08;32.70;92683.44;2063755;69;20241;-76
2021/07/23 10:32:25;;;;;;;14.30;10.43;;;;;;;33.63;32.27;92682.78;2048377;70;20194;-76
2021/07/23 10:34:59;;;;;;;15.95;11.20;;;;;;;34.45;30.60;92681.25;2048457;69;20225;-76
2021/07/23 10:37:32;;;;;;;14.05;10.50;;;;;;;33.93;29.97;92681.25;2048725;69;20228;-77
2021/07/23 10:40:10;;;;;;;13.60;11.05;;;;;;;34.31;32.50;92676.53;2048394;70;20207;-77
2021/07/23 10:42:40;;;;;;;14.10;10.93;;;;;;;33.58;30.05;92676.34;2048599;69;20146;-74
2021/07/23 10:45:11;;;;;;;13.82;10.18;;;;;;;34.94;30.60;92682.69;2048753;69;20157;-77
2021/07/23 10:47:47;;;;;;;12.77;10.32;;;;;;;35.43;28.46;92669.44;2048523;69;20168;-76
2021/07/23 10:50:20;;;;;;;11.65;9.50;;;;;;;36.16;27.40;92665.50;2048730;69;20573;-76
2021/07/23 10:52:46;;;;;;;14.02;9.45;;;;;;;36.73;27.52;92675.78;2048616;69;20201;-75
2021/07/23 10:55:13;;;;;;;12.48;9.82;;;;;;;37.01;26.36;92667.41;2048442;69;20262;-76
2021/07/23 10:57:39;;;;;;;11.85;8.93;;;;;;;37.41;22.92;92658.50;2048593;69;20159;-75
2021/07/23 11:00:07;;;;;;;13.35;8.95;;;;;;;38.03;23.92;92655.09;2048633;70;20156;-76
2021/07/23 11:02:32;;;;;;;10.40;8.10;;;;;;;38.89;23.63;92657.81;2048437;70;20234;-77
2021/07/23 11:05:09;;;;;;;9.50;8.20;;;;;;;39.54;23.55;92653.97;2048536;70;20153;-76
2021/07/23 11:07:36;;;;;;;9.88;8.77;;;;;;;41.27;21.33;92658.81;2048602;70;20606;-77
2021/07/23 11:10:03;;;;;;;9.48;7.93;;;;;;;42.57;19.90;92665.25;2064240;69;20159;-73
2021/07/23 11:12:33;;;;;;;10.02;8.07;;;;;;;44.43;18.62;92652.47;2048523;70;20534;-73
2021/07/23 11:15:05;;;;;;;8.95;8.05;;;;;;;44.97;17.20;92662.03;2048447;70;20492;-75
2021/07/23 11:17:31;;;;;;;10.90;7.63;;;;;;;45.59;17.53;92659.03;2048491;69;20157;-74
2021/07/23 11:20:01;;;;;;;9.20;7.95;;;;;;;46.17;17.20;92655.50;2048626;69;20134;-75
2021/07/23 11:22:28;;;;;;;9.93;8.15;;;;;;;47.62;16.96;92659.69;2048238;70;20143;-76
2021/07/23 11:24:55;;;;;;;10.23;7.95;;;;;;;45.78;16.78;92647.22;2047923;69;20174;-74
2021/07/23 11:27:29;;;;;;;10.60;7.63;;;;;;;48.42;15.61;92647.81;2048535;69;20499;-76